sensor_id;sensor_type;location;lat;lon;timestamp;P1;durP1;ratioP1;P2;durP2;ratioP2
34775;SDS011;20989;52.566;13.346;2023-04-23T00:00:45;2.20;;;2.10;;
34775;SDS011;20989;52.566;13.346;2023-04-23T00:03:48;2.38;;;2.17;;
34775;SDS011;20989;52.566;13.346;2023-04-23T00:06:49;2.38;;;2.28;;
34775;SDS011;20989;52.566;13.346;2023-04-23T00:09:51;1.90;;;1.80;;
34775;SDS011;20989;52.566;13.346;2023-04-23T00:12:56;1.90;;;1.80;;
34775;SDS011;20989;52.566;13.346;2023-04-23T00:15:57;2.13;;;2.03;;
34775;SDS011;20989;52.566;13.346;2023-04-23T00:18:59;1.90;;;1.80;;
34775;SDS011;20989;52.566;13.346;2023-04-23T00:21:59;2.03;;;1.92;;
34775;SDS011;20989;52.566;13.346;2023-04-23T00:25:00;1.67;;;1.60;;
34775;SDS011;20989;52.566;13.346;2023-04-23T00:28:01;1.88;;;1.77;;
34775;SDS011;20989;52.566;13.346;2023-04-23T00:31:02;2.17;;;2.08;;
34775;SDS011;20989;52.566;13.346;2023-04-23T00:34:02;2.20;;;2.10;;
34775;SDS011;20989;52.566;13.346;2023-04-23T00:37:03;2.00;;;1.90;;
34775;SDS011;20989;52.566;13.346;2023-04-23T00:40:06;2.05;;;1.95;;
34775;SDS011;20989;52.566;13.346;2023-04-23T00:43:08;1.98;;;1.88;;
34775;SDS011;20989;52.566;13.346;2023-04-23T00:46:11;2.20;;;2.10;;
34775;SDS011;20989;52.566;13.346;2023-04-23T00:49:12;2.10;;;1.95;;
34775;SDS011;20989;52.566;13.346;2023-04-23T00:52:14;1.95;;;1.85;;
34775;SDS011;20989;52.566;13.346;2023-04-23T00:55:14;1.92;;;1.83;;
34775;SDS011;20989;52.566;13.346;2023-04-23T00:58:15;1.92;;;1.83;;
34775;SDS011;20989;52.566;13.346;2023-04-23T01:01:16;2.45;;;2.25;;
34775;SDS011;20989;52.566;13.346;2023-04-23T01:04:19;2.10;;;2.00;;
34775;SDS011;20989;52.566;13.346;2023-04-23T01:07:22;2.45;;;2.25;;
34775;SDS011;20989;52.566;13.346;2023-04-23T01:10:23;2.10;;;2.00;;
34775;SDS011;20989;52.566;13.346;2023-04-23T01:13:24;1.70;;;1.60;;
34775;SDS011;20989;52.566;13.346;2023-04-23T01:16:28;1.63;;;1.52;;
34775;SDS011;20989;52.566;13.346;2023-04-23T01:19:29;2.08;;;1.98;;
34775;SDS011;20989;52.566;13.346;2023-04-23T01:22:32;1.80;;;1.70;;
34775;SDS011;20989;52.566;13.346;2023-04-23T01:25:37;2.08;;;1.98;;
34775;SDS011;20989;52.566;13.346;2023-04-23T01:28:38;2.15;;;1.98;;
34775;SDS011;20989;52.566;13.346;2023-04-23T01:31:39;2.25;;;2.15;;
34775;SDS011;20989;52.566;13.346;2023-04-23T01:34:41;1.83;;;1.73;;
34775;SDS011;20989;52.566;13.346;2023-04-23T01:37:45;2.42;;;2.33;;
34775;SDS011;20989;52.566;13.346;2023-04-23T01:40:47;2.45;;;2.35;;
34775;SDS011;20989;52.566;13.346;2023-04-23T01:43:48;2.20;;;2.10;;
34775;SDS011;20989;52.566;13.346;2023-04-23T01:46:49;1.98;;;1.85;;
34775;SDS011;20989;52.566;13.346;2023-04-23T01:49:49;2.30;;;2.20;;
34775;SDS011;20989;52.566;13.346;2023-04-23T01:52:50;2.55;;;2.35;;
34775;SDS011;20989;52.566;13.346;2023-04-23T01:55:51;2.03;;;1.92;;
34775;SDS011;20989;52.566;13.346;2023-04-23T01:58:53;2.40;;;2.30;;
34775;SDS011;20989;52.566;13.346;2023-04-23T02:01:54;2.42;;;2.22;;
34775;SDS011;20989;52.566;13.346;2023-04-23T02:04:55;2.20;;;2.00;;
34775;SDS011;20989;52.566;13.346;2023-04-23T02:07:58;2.13;;;2.03;;
34775;SDS011;20989;52.566;13.346;2023-04-23T02:11:00;2.10;;;2.00;;
34775;SDS011;20989;52.566;13.346;2023-04-23T02:14:02;2.13;;;2.03;;
34775;SDS011;20989;52.566;13.346;2023-04-23T02:17:05;2.50;;;2.30;;
34775;SDS011;20989;52.566;13.346;2023-04-23T02:20:07;1.77;;;1.67;;
34775;SDS011;20989;52.566;13.346;2023-04-23T02:23:09;2.03;;;1.92;;
34775;SDS011;20989;52.566;13.346;2023-04-23T02:26:11;1.95;;;1.85;;
34775;SDS011;20989;52.566;13.346;2023-04-23T02:29:12;2.40;;;1.88;;
34775;SDS011;20989;52.566;13.346;2023-04-23T02:32:13;2.00;;;1.90;;
34775;SDS011;20989;52.566;13.346;2023-04-23T02:35:13;2.13;;;2.03;;
34775;SDS011;20989;52.566;13.346;2023-04-23T02:38:14;2.00;;;1.90;;
34775;SDS011;20989;52.566;13.346;2023-04-23T02:41:15;2.10;;;2.00;;
34775;SDS011;20989;52.566;13.346;2023-04-23T02:44:16;2.08;;;1.98;;
34775;SDS011;20989;52.566;13.346;2023-04-23T02:47:17;1.85;;;1.75;;
34775;SDS011;20989;52.566;13.346;2023-04-23T02:50:18;2.33;;;2.22;;
34775;SDS011;20989;52.566;13.346;2023-04-23T02:53:19;2.40;;;2.30;;
34775;SDS011;20989;52.566;13.346;2023-04-23T02:56:20;1.98;;;1.77;;
34775;SDS011;20989;52.566;13.346;2023-04-23T02:59:20;2.50;;;1.92;;
34775;SDS011;20989;52.566;13.346;2023-04-23T03:02:21;1.70;;;1.60;;
34775;SDS011;20989;52.566;13.346;2023-04-23T03:05:22;2.40;;;2.30;;
34775;SDS011;20989;52.566;13.346;2023-04-23T03:08:22;1.80;;;1.70;;
34775;SDS011;20989;52.566;13.346;2023-04-23T03:11:23;2.00;;;1.90;;
34775;SDS011;20989;52.566;13.346;2023-04-23T03:14:24;2.00;;;1.90;;
34775;SDS011;20989;52.566;13.346;2023-04-23T03:17:24;2.25;;;2.15;;
34775;SDS011;20989;52.566;13.346;2023-04-23T03:20:26;1.65;;;1.55;;
34775;SDS011;20989;52.566;13.346;2023-04-23T03:23:27;2.00;;;1.90;;
34775;SDS011;20989;52.566;13.346;2023-04-23T03:26:28;1.70;;;1.60;;
34775;SDS011;20989;52.566;13.346;2023-04-23T03:29:29;1.50;;;1.40;;
34775;SDS011;20989;52.566;13.346;2023-04-23T03:32:29;2.58;;;1.90;;
34775;SDS011;20989;52.566;13.346;2023-04-23T03:35:30;1.90;;;1.80;;
34775;SDS011;20989;52.566;13.346;2023-04-23T03:38:31;1.85;;;1.75;;
34775;SDS011;20989;52.566;13.346;2023-04-23T03:41:31;1.65;;;1.55;;
34775;SDS011;20989;52.566;13.346;2023-04-23T03:44:32;1.70;;;1.60;;
34775;SDS011;20989;52.566;13.346;2023-04-23T03:47:33;1.90;;;1.70;;
34775;SDS011;20989;52.566;13.346;2023-04-23T03:50:33;1.58;;;1.52;;
34775;SDS011;20989;52.566;13.346;2023-04-23T03:53:37;1.85;;;1.75;;
34775;SDS011;20989;52.566;13.346;2023-04-23T03:56:38;2.13;;;2.03;;
34775;SDS011;20989;52.566;13.346;2023-04-23T04:03:36;2.00;;;1.90;;
34775;SDS011;20989;52.566;13.346;2023-04-23T04:06:36;1.50;;;1.50;;
34775;SDS011;20989;52.566;13.346;2023-04-23T04:09:37;1.73;;;1.63;;
34775;SDS011;20989;52.566;13.346;2023-04-23T04:12:38;1.80;;;1.70;;
34775;SDS011;20989;52.566;13.346;2023-04-23T04:15:41;1.80;;;1.70;;
34775;SDS011;20989;52.566;13.346;2023-04-23T04:18:41;1.88;;;1.77;;
34775;SDS011;20989;52.566;13.346;2023-04-23T04:21:42;1.70;;;1.60;;
34775;SDS011;20989;52.566;13.346;2023-04-23T04:24:42;1.52;;;1.48;;
34775;SDS011;20989;52.566;13.346;2023-04-23T04:27:46;1.88;;;1.77;;
34775;SDS011;20989;52.566;13.346;2023-04-23T04:30:48;1.50;;;1.40;;
34775;SDS011;20989;52.566;13.346;2023-04-23T04:33:49;2.58;;;2.08;;
34775;SDS011;20989;52.566;13.346;2023-04-23T04:36:50;1.73;;;1.63;;
34775;SDS011;20989;52.566;13.346;2023-04-23T04:39:52;1.60;;;1.50;;
34775;SDS011;20989;52.566;13.346;2023-04-23T04:42:53;1.30;;;1.20;;
34775;SDS011;20989;52.566;13.346;2023-04-23T04:45:54;1.90;;;1.80;;
34775;SDS011;20989;52.566;13.346;2023-04-23T04:48:55;1.30;;;1.30;;
34775;SDS011;20989;52.566;13.346;2023-04-23T04:51:55;1.80;;;1.70;;
34775;SDS011;20989;52.566;13.346;2023-04-23T04:54:56;1.65;;;1.55;;
34775;SDS011;20989;52.566;13.346;2023-04-23T04:57:57;1.65;;;1.55;;
34775;SDS011;20989;52.566;13.346;2023-04-23T05:00:57;1.52;;;1.50;;
34775;SDS011;20989;52.566;13.346;2023-04-23T05:03:58;1.80;;;1.70;;
34775;SDS011;20989;52.566;13.346;2023-04-23T05:06:59;1.80;;;1.70;;
34775;SDS011;20989;52.566;13.346;2023-04-23T05:10:00;1.73;;;1.63;;
34775;SDS011;20989;52.566;13.346;2023-04-23T05:13:00;1.90;;;1.80;;
34775;SDS011;20989;52.566;13.346;2023-04-23T05:16:01;1.88;;;1.45;;
34775;SDS011;20989;52.566;13.346;2023-04-23T05:19:02;1.67;;;1.58;;
34775;SDS011;20989;52.566;13.346;2023-04-23T05:22:02;1.73;;;1.63;;
34775;SDS011;20989;52.566;13.346;2023-04-23T05:25:03;1.75;;;1.65;;
34775;SDS011;20989;52.566;13.346;2023-04-23T05:28:05;1.70;;;1.60;;
34775;SDS011;20989;52.566;13.346;2023-04-23T05:31:07;1.50;;;1.40;;
34775;SDS011;20989;52.566;13.346;2023-04-23T05:34:08;1.70;;;1.60;;
34775;SDS011;20989;52.566;13.346;2023-04-23T05:37:08;1.60;;;1.50;;
34775;SDS011;20989;52.566;13.346;2023-04-23T05:40:10;1.48;;;1.15;;
34775;SDS011;20989;52.566;13.346;2023-04-23T05:43:11;1.27;;;1.27;;
34775;SDS011;20989;52.566;13.346;2023-04-23T05:46:12;1.20;;;1.20;;
34775;SDS011;20989;52.566;13.346;2023-04-23T05:49:12;1.73;;;1.63;;
34775;SDS011;20989;52.566;13.346;2023-04-23T05:52:13;1.42;;;1.38;;
34775;SDS011;20989;52.566;13.346;2023-04-23T05:55:14;1.52;;;1.40;;
34775;SDS011;20989;52.566;13.346;2023-04-23T05:58:15;1.30;;;1.30;;
34775;SDS011;20989;52.566;13.346;2023-04-23T06:01:18;1.85;;;1.75;;
34775;SDS011;20989;52.566;13.346;2023-04-23T06:04:18;1.60;;;1.50;;
34775;SDS011;20989;52.566;13.346;2023-04-23T06:07:19;1.38;;;1.33;;
34775;SDS011;20989;52.566;13.346;2023-04-23T06:10:20;1.50;;;1.40;;
34775;SDS011;20989;52.566;13.346;2023-04-23T06:13:21;1.52;;;1.42;;
34775;SDS011;20989;52.566;13.346;2023-04-23T06:16:21;1.52;;;1.50;;
34775;SDS011;20989;52.566;13.346;2023-04-23T06:19:23;1.67;;;1.58;;
34775;SDS011;20989;52.566;13.346;2023-04-23T06:22:26;1.30;;;1.25;;
34775;SDS011;20989;52.566;13.346;2023-04-23T06:25:26;1.65;;;1.55;;
34775;SDS011;20989;52.566;13.346;2023-04-23T06:28:28;1.50;;;1.40;;
34775;SDS011;20989;52.566;13.346;2023-04-23T06:31:29;1.50;;;1.40;;
34775;SDS011;20989;52.566;13.346;2023-04-23T06:34:30;1.48;;;1.38;;
34775;SDS011;20989;52.566;13.346;2023-04-23T06:37:30;1.33;;;1.33;;
34775;SDS011;20989;52.566;13.346;2023-04-23T06:40:31;1.48;;;1.38;;
34775;SDS011;20989;52.566;13.346;2023-04-23T06:43:32;1.50;;;1.40;;
34775;SDS011;20989;52.566;13.346;2023-04-23T06:46:33;1.20;;;1.20;;
34775;SDS011;20989;52.566;13.346;2023-04-23T06:49:34;1.35;;;1.35;;
34775;SDS011;20989;52.566;13.346;2023-04-23T06:52:35;1.23;;;1.23;;
34775;SDS011;20989;52.566;13.346;2023-04-23T06:55:36;1.20;;;1.20;;
34775;SDS011;20989;52.566;13.346;2023-04-23T06:58:36;1.25;;;1.25;;
34775;SDS011;20989;52.566;13.346;2023-04-23T07:01:38;1.30;;;1.20;;
34775;SDS011;20989;52.566;13.346;2023-04-23T07:04:38;1.60;;;1.50;;
34775;SDS011;20989;52.566;13.346;2023-04-23T07:07:39;1.58;;;1.50;;
34775;SDS011;20989;52.566;13.346;2023-04-23T07:10:42;1.33;;;1.33;;
34775;SDS011;20989;52.566;13.346;2023-04-23T07:13:42;1.20;;;1.20;;
34775;SDS011;20989;52.566;13.346;2023-04-23T07:16:43;1.40;;;1.40;;
34775;SDS011;20989;52.566;13.346;2023-04-23T07:19:45;1.50;;;1.40;;
34775;SDS011;20989;52.566;13.346;2023-04-23T07:22:47;1.63;;;1.52;;
34775;SDS011;20989;52.566;13.346;2023-04-23T07:25:47;1.10;;;1.10;;
34775;SDS011;20989;52.566;13.346;2023-04-23T07:28:48;1.27;;;1.20;;
34775;SDS011;20989;52.566;13.346;2023-04-23T07:31:49;1.10;;;1.10;;
34775;SDS011;20989;52.566;13.346;2023-04-23T07:34:50;1.75;;;1.65;;
34775;SDS011;20989;52.566;13.346;2023-04-23T07:37:52;1.52;;;1.42;;
34775;SDS011;20989;52.566;13.346;2023-04-23T07:40:54;1.20;;;1.20;;
34775;SDS011;20989;52.566;13.346;2023-04-23T07:43:55;1.40;;;1.30;;
34775;SDS011;20989;52.566;13.346;2023-04-23T07:46:56;1.15;;;1.15;;
34775;SDS011;20989;52.566;13.346;2023-04-23T07:49:57;1.20;;;1.20;;
34775;SDS011;20989;52.566;13.346;2023-04-23T07:52:57;1.60;;;1.50;;
34775;SDS011;20989;52.566;13.346;2023-04-23T07:55:58;1.30;;;1.30;;
34775;SDS011;20989;52.566;13.346;2023-04-23T07:58:59;1.00;;;1.00;;
34775;SDS011;20989;52.566;13.346;2023-04-23T08:02:00;1.42;;;1.33;;
34775;SDS011;20989;52.566;13.346;2023-04-23T08:05:01;1.35;;;1.25;;
34775;SDS011;20989;52.566;13.346;2023-04-23T08:08:02;1.00;;;1.00;;
34775;SDS011;20989;52.566;13.346;2023-04-23T08:11:02;1.08;;;1.08;;
34775;SDS011;20989;52.566;13.346;2023-04-23T08:14:04;1.50;;;1.40;;
34775;SDS011;20989;52.566;13.346;2023-04-23T08:17:05;1.15;;;1.15;;
34775;SDS011;20989;52.566;13.346;2023-04-23T08:20:06;0.98;;;0.98;;
34775;SDS011;20989;52.566;13.346;2023-04-23T08:23:07;1.25;;;1.25;;
34775;SDS011;20989;52.566;13.346;2023-04-23T08:26:08;1.23;;;1.13;;
34775;SDS011;20989;52.566;13.346;2023-04-23T08:29:09;1.00;;;1.00;;
34775;SDS011;20989;52.566;13.346;2023-04-23T08:32:10;1.00;;;1.00;;
34775;SDS011;20989;52.566;13.346;2023-04-23T08:35:10;1.27;;;1.27;;
34775;SDS011;20989;52.566;13.346;2023-04-23T08:38:12;1.05;;;1.05;;
34775;SDS011;20989;52.566;13.346;2023-04-23T08:41:13;1.23;;;1.17;;
34775;SDS011;20989;52.566;13.346;2023-04-23T08:44:16;1.20;;;1.20;;
34775;SDS011;20989;52.566;13.346;2023-04-23T08:47:18;1.20;;;1.20;;
34775;SDS011;20989;52.566;13.346;2023-04-23T08:50:24;1.38;;;1.33;;
34775;SDS011;20989;52.566;13.346;2023-04-23T08:53:26;1.58;;;1.33;;
34775;SDS011;20989;52.566;13.346;2023-04-23T08:56:27;6.28;;;1.33;;
34775;SDS011;20989;52.566;13.346;2023-04-23T08:59:29;5.85;;;1.20;;
34775;SDS011;20989;52.566;13.346;2023-04-23T09:02:33;4.72;;;1.42;;
34775;SDS011;20989;52.566;13.346;2023-04-23T09:05:34;2.58;;;1.05;;
34775;SDS011;20989;52.566;13.346;2023-04-23T09:08:36;1.83;;;0.98;;
34775;SDS011;20989;52.566;13.346;2023-04-23T09:11:37;1.65;;;1.08;;
34775;SDS011;20989;52.566;13.346;2023-04-23T09:14:38;1.20;;;1.10;;
34775;SDS011;20989;52.566;13.346;2023-04-23T09:17:40;1.15;;;1.08;;
34775;SDS011;20989;52.566;13.346;2023-04-23T09:20:43;1.40;;;1.30;;
34775;SDS011;20989;52.566;13.346;2023-04-23T09:23:43;1.27;;;1.17;;
34775;SDS011;20989;52.566;13.346;2023-04-23T09:26:44;1.20;;;1.10;;
34775;SDS011;20989;52.566;13.346;2023-04-23T09:29:47;1.08;;;1.08;;
34775;SDS011;20989;52.566;13.346;2023-04-23T09:32:52;1.23;;;1.13;;
34775;SDS011;20989;52.566;13.346;2023-04-23T09:35:53;1.35;;;1.25;;
34775;SDS011;20989;52.566;13.346;2023-04-23T09:38:57;0.95;;;0.95;;
34775;SDS011;20989;52.566;13.346;2023-04-23T09:42:02;1.98;;;1.20;;
34775;SDS011;20989;52.566;13.346;2023-04-23T09:45:10;1.42;;;1.13;;
34775;SDS011;20989;52.566;13.346;2023-04-23T09:48:11;2.83;;;1.55;;
34775;SDS011;20989;52.566;13.346;2023-04-23T09:51:12;1.38;;;1.30;;
34775;SDS011;20989;52.566;13.346;2023-04-23T09:54:15;4.13;;;1.17;;
34775;SDS011;20989;52.566;13.346;2023-04-23T09:57:17;3.83;;;1.13;;
34775;SDS011;20989;52.566;13.346;2023-04-23T10:00:18;1.42;;;1.25;;
34775;SDS011;20989;52.566;13.346;2023-04-23T10:03:25;1.00;;;1.00;;
34775;SDS011;20989;52.566;13.346;2023-04-23T10:06:28;1.20;;;1.05;;
34775;SDS011;20989;52.566;13.346;2023-04-23T10:09:30;0.77;;;0.77;;
34775;SDS011;20989;52.566;13.346;2023-04-23T10:12:31;3.33;;;1.10;;
34775;SDS011;20989;52.566;13.346;2023-04-23T10:15:32;5.47;;;1.20;;
34775;SDS011;20989;52.566;13.346;2023-04-23T10:18:34;1.67;;;1.33;;
34775;SDS011;20989;52.566;13.346;2023-04-23T10:21:37;1.10;;;1.10;;
34775;SDS011;20989;52.566;13.346;2023-04-23T10:24:38;1.50;;;1.35;;
34775;SDS011;20989;52.566;13.346;2023-04-23T10:27:41;1.70;;;1.05;;
34775;SDS011;20989;52.566;13.346;2023-04-23T10:30:43;1.08;;;0.98;;
34775;SDS011;20989;52.566;13.346;2023-04-23T10:33:44;3.67;;;1.30;;
34775;SDS011;20989;52.566;13.346;2023-04-23T10:36:47;10.63;;;1.40;;
34775;SDS011;20989;52.566;13.346;2023-04-23T10:39:52;6.50;;;1.30;;
34775;SDS011;20989;52.566;13.346;2023-04-23T10:42:54;7.07;;;1.42;;
34775;SDS011;20989;52.566;13.346;2023-04-23T10:45:55;1.17;;;0.93;;
34775;SDS011;20989;52.566;13.346;2023-04-23T10:49:12;1.40;;;1.25;;
34775;SDS011;20989;52.566;13.346;2023-04-23T10:52:15;2.47;;;1.13;;
34775;SDS011;20989;52.566;13.346;2023-04-23T10:55:18;5.82;;;1.27;;
34775;SDS011;20989;52.566;13.346;2023-04-23T10:58:20;2.50;;;1.00;;
34775;SDS011;20989;52.566;13.346;2023-04-23T11:01:24;4.75;;;1.30;;
34775;SDS011;20989;52.566;13.346;2023-04-23T11:04:27;2.38;;;1.20;;
34775;SDS011;20989;52.566;13.346;2023-04-23T11:07:29;4.20;;;1.42;;
34775;SDS011;20989;52.566;13.346;2023-04-23T11:10:31;2.42;;;1.10;;
34775;SDS011;20989;52.566;13.346;2023-04-23T11:13:33;3.00;;;1.10;;
34775;SDS011;20989;52.566;13.346;2023-04-23T11:16:33;2.50;;;1.63;;
34775;SDS011;20989;52.566;13.346;2023-04-23T11:19:36;1.35;;;0.77;;
34775;SDS011;20989;52.566;13.346;2023-04-23T11:25:42;1.88;;;1.02;;
34775;SDS011;20989;52.566;13.346;2023-04-23T11:28:44;3.50;;;1.20;;
34775;SDS011;20989;52.566;13.346;2023-04-23T11:31:46;2.80;;;1.35;;
34775;SDS011;20989;52.566;13.346;2023-04-23T11:34:47;0.70;;;0.70;;
34775;SDS011;20989;52.566;13.346;2023-04-23T11:37:49;1.45;;;1.13;;
34775;SDS011;20989;52.566;13.346;2023-04-23T11:40:50;2.22;;;0.88;;
34775;SDS011;20989;52.566;13.346;2023-04-23T11:43:52;1.40;;;0.90;;
34775;SDS011;20989;52.566;13.346;2023-04-23T11:46:52;2.78;;;0.80;;
34775;SDS011;20989;52.566;13.346;2023-04-23T11:49:53;0.73;;;0.73;;
34775;SDS011;20989;52.566;13.346;2023-04-23T11:52:54;1.42;;;1.33;;
34775;SDS011;20989;52.566;13.346;2023-04-23T11:55:55;5.03;;;1.00;;
34775;SDS011;20989;52.566;13.346;2023-04-23T11:58:57;1.70;;;1.10;;
34775;SDS011;20989;52.566;13.346;2023-04-23T12:02:00;3.17;;;1.23;;
34775;SDS011;20989;52.566;13.346;2023-04-23T12:05:03;3.20;;;1.40;;
34775;SDS011;20989;52.566;13.346;2023-04-23T12:08:06;2.83;;;0.88;;
34775;SDS011;20989;52.566;13.346;2023-04-23T12:11:08;5.32;;;1.20;;
34775;SDS011;20989;52.566;13.346;2023-04-23T12:14:12;3.72;;;1.13;;
34775;SDS011;20989;52.566;13.346;2023-04-23T12:17:14;3.10;;;1.42;;
34775;SDS011;20989;52.566;13.346;2023-04-23T12:20:16;2.55;;;1.15;;
34775;SDS011;20989;52.566;13.346;2023-04-23T12:23:26;2.65;;;1.20;;
34775;SDS011;20989;52.566;13.346;2023-04-23T12:26:27;3.73;;;1.10;;
34775;SDS011;20989;52.566;13.346;2023-04-23T12:29:28;2.65;;;1.13;;
34775;SDS011;20989;52.566;13.346;2023-04-23T12:32:31;1.15;;;0.95;;
34775;SDS011;20989;52.566;13.346;2023-04-23T12:35:37;2.80;;;1.00;;
34775;SDS011;20989;52.566;13.346;2023-04-23T12:38:41;1.20;;;1.10;;
34775;SDS011;20989;52.566;13.346;2023-04-23T12:41:42;1.02;;;1.02;;
34775;SDS011;20989;52.566;13.346;2023-04-23T12:44:43;13.52;;;1.10;;
34775;SDS011;20989;52.566;13.346;2023-04-23T12:47:43;1.05;;;0.85;;
34775;SDS011;20989;52.566;13.346;2023-04-23T12:50:44;1.00;;;0.90;;
34775;SDS011;20989;52.566;13.346;2023-04-23T12:53:46;3.80;;;1.05;;
34775;SDS011;20989;52.566;13.346;2023-04-23T12:56:46;1.77;;;1.08;;
34775;SDS011;20989;52.566;13.346;2023-04-23T12:59:47;2.25;;;1.20;;
34775;SDS011;20989;52.566;13.346;2023-04-23T13:02:48;2.67;;;0.90;;
34775;SDS011;20989;52.566;13.346;2023-04-23T13:05:49;1.80;;;1.00;;
34775;SDS011;20989;52.566;13.346;2023-04-23T13:08:50;5.28;;;1.10;;
34775;SDS011;20989;52.566;13.346;2023-04-23T13:11:50;5.28;;;1.05;;
34775;SDS011;20989;52.566;13.346;2023-04-23T13:14:51;14.68;;;1.40;;
34775;SDS011;20989;52.566;13.346;2023-04-23T13:17:52;1.23;;;1.10;;
34775;SDS011;20989;52.566;13.346;2023-04-23T13:20:52;3.20;;;0.80;;
34775;SDS011;20989;52.566;13.346;2023-04-23T13:23:55;1.10;;;1.00;;
34775;SDS011;20989;52.566;13.346;2023-04-23T13:26:56;1.75;;;1.00;;
34775;SDS011;20989;52.566;13.346;2023-04-23T13:29:56;1.58;;;0.90;;
34775;SDS011;20989;52.566;13.346;2023-04-23T13:32:57;6.18;;;1.40;;
34775;SDS011;20989;52.566;13.346;2023-04-23T13:35:59;17.80;;;4.80;;
34775;SDS011;20989;52.566;13.346;2023-04-23T13:39:00;12.90;;;5.00;;
34775;SDS011;20989;52.566;13.346;2023-04-23T13:42:02;13.60;;;5.10;;
34775;SDS011;20989;52.566;13.346;2023-04-23T13:45:03;12.32;;;4.90;;
34775;SDS011;20989;52.566;13.346;2023-04-23T13:48:06;11.82;;;4.90;;
34775;SDS011;20989;52.566;13.346;2023-04-23T13:51:07;9.95;;;4.32;;
34775;SDS011;20989;52.566;13.346;2023-04-23T13:54:07;11.30;;;4.50;;
34775;SDS011;20989;52.566;13.346;2023-04-23T13:57:08;11.43;;;4.40;;
34775;SDS011;20989;52.566;13.346;2023-04-23T14:00:09;8.25;;;4.10;;
34775;SDS011;20989;52.566;13.346;2023-04-23T14:03:11;10.20;;;3.78;;
34775;SDS011;20989;52.566;13.346;2023-04-23T14:06:13;7.82;;;4.00;;
34775;SDS011;20989;52.566;13.346;2023-04-23T14:09:14;9.68;;;3.97;;
34775;SDS011;20989;52.566;13.346;2023-04-23T14:12:14;17.90;;;6.85;;
34775;SDS011;20989;52.566;13.346;2023-04-23T14:15:15;10.25;;;5.20;;
34775;SDS011;20989;52.566;13.346;2023-04-23T14:18:16;10.60;;;5.93;;
34775;SDS011;20989;52.566;13.346;2023-04-23T14:21:17;11.38;;;4.93;;
34775;SDS011;20989;52.566;13.346;2023-04-23T14:24:27;11.27;;;4.88;;
34775;SDS011;20989;52.566;13.346;2023-04-23T14:27:33;8.20;;;4.07;;
34775;SDS011;20989;52.566;13.346;2023-04-23T14:30:39;16.05;;;8.95;;
34775;SDS011;20989;52.566;13.346;2023-04-23T14:33:40;13.77;;;6.95;;
34775;SDS011;20989;52.566;13.346;2023-04-23T14:36:41;13.95;;;6.45;;
34775;SDS011;20989;52.566;13.346;2023-04-23T14:39:42;11.65;;;5.93;;
34775;SDS011;20989;52.566;13.346;2023-04-23T14:42:43;11.10;;;6.38;;
34775;SDS011;20989;52.566;13.346;2023-04-23T14:45:44;13.98;;;6.35;;
34775;SDS011;20989;52.566;13.346;2023-04-23T14:48:45;11.10;;;5.55;;
34775;SDS011;20989;52.566;13.346;2023-04-23T14:51:47;11.23;;;5.88;;
34775;SDS011;20989;52.566;13.346;2023-04-23T14:54:54;10.77;;;5.28;;
34775;SDS011;20989;52.566;13.346;2023-04-23T14:57:55;15.10;;;6.95;;
34775;SDS011;20989;52.566;13.346;2023-04-23T15:00:55;19.65;;;8.93;;
34775;SDS011;20989;52.566;13.346;2023-04-23T15:04:09;16.42;;;8.52;;
34775;SDS011;20989;52.566;13.346;2023-04-23T15:07:32;14.30;;;6.82;;
34775;SDS011;20989;52.566;13.346;2023-04-23T15:10:41;18.85;;;7.65;;
34775;SDS011;20989;52.566;13.346;2023-04-23T15:16:47;14.57;;;7.57;;
34775;SDS011;20989;52.566;13.346;2023-04-23T15:19:48;21.15;;;8.55;;
34775;SDS011;20989;52.566;13.346;2023-04-23T15:22:50;13.52;;;6.82;;
34775;SDS011;20989;52.566;13.346;2023-04-23T15:25:51;20.42;;;7.95;;
34775;SDS011;20989;52.566;13.346;2023-04-23T15:28:52;13.30;;;7.18;;
34775;SDS011;20989;52.566;13.346;2023-04-23T15:31:53;16.33;;;6.20;;
34775;SDS011;20989;52.566;13.346;2023-04-23T15:34:56;13.85;;;7.90;;
34775;SDS011;20989;52.566;13.346;2023-04-23T15:37:57;22.88;;;11.35;;
34775;SDS011;20989;52.566;13.346;2023-04-23T15:40:58;19.38;;;9.30;;
34775;SDS011;20989;52.566;13.346;2023-04-23T15:44:00;27.05;;;11.52;;
34775;SDS011;20989;52.566;13.346;2023-04-23T15:47:01;26.13;;;11.15;;
34775;SDS011;20989;52.566;13.346;2023-04-23T15:50:03;36.83;;;15.30;;
34775;SDS011;20989;52.566;13.346;2023-04-23T15:53:04;28.30;;;11.48;;
34775;SDS011;20989;52.566;13.346;2023-04-23T15:56:05;21.15;;;11.18;;
34775;SDS011;20989;52.566;13.346;2023-04-23T15:59:06;37.92;;;15.10;;
34775;SDS011;20989;52.566;13.346;2023-04-23T16:02:07;47.67;;;18.48;;
34775;SDS011;20989;52.566;13.346;2023-04-23T16:05:07;35.97;;;13.80;;
34775;SDS011;20989;52.566;13.346;2023-04-23T16:08:09;47.35;;;18.48;;
34775;SDS011;20989;52.566;13.346;2023-04-23T16:11:11;40.95;;;16.58;;
34775;SDS011;20989;52.566;13.346;2023-04-23T16:14:13;38.33;;;14.82;;
34775;SDS011;20989;52.566;13.346;2023-04-23T16:17:14;47.08;;;17.60;;
34775;SDS011;20989;52.566;13.346;2023-04-23T16:20:15;43.55;;;15.75;;
34775;SDS011;20989;52.566;13.346;2023-04-23T16:23:16;44.50;;;17.02;;
34775;SDS011;20989;52.566;13.346;2023-04-23T16:30:05;57.72;;;20.50;;
34775;SDS011;20989;52.566;13.346;2023-04-23T16:33:07;56.90;;;17.00;;
34775;SDS011;20989;52.566;13.346;2023-04-23T16:36:09;62.47;;;18.17;;
34775;SDS011;20989;52.566;13.346;2023-04-23T16:39:17;81.40;;;18.48;;
34775;SDS011;20989;52.566;13.346;2023-04-23T16:42:18;62.10;;;17.38;;
34775;SDS011;20989;52.566;13.346;2023-04-23T16:45:20;62.13;;;17.35;;
34775;SDS011;20989;52.566;13.346;2023-04-23T16:48:22;44.47;;;15.38;;
34775;SDS011;20989;52.566;13.346;2023-04-23T16:51:23;56.63;;;17.45;;
34775;SDS011;20989;52.566;13.346;2023-04-23T16:57:51;58.42;;;17.52;;
34775;SDS011;20989;52.566;13.346;2023-04-23T17:00:53;57.38;;;15.75;;
34775;SDS011;20989;52.566;13.346;2023-04-23T17:03:54;48.67;;;15.48;;
34775;SDS011;20989;52.566;13.346;2023-04-23T17:06:55;69.22;;;16.08;;
34775;SDS011;20989;52.566;13.346;2023-04-23T17:09:56;63.30;;;15.77;;
34775;SDS011;20989;52.566;13.346;2023-04-23T17:12:57;61.13;;;15.93;;
34775;SDS011;20989;52.566;13.346;2023-04-23T17:15:57;48.50;;;14.20;;
34775;SDS011;20989;52.566;13.346;2023-04-23T17:18:58;58.20;;;14.60;;
34775;SDS011;20989;52.566;13.346;2023-04-23T17:21:59;47.90;;;13.32;;
34775;SDS011;20989;52.566;13.346;2023-04-23T17:25:00;43.97;;;13.38;;
34775;SDS011;20989;52.566;13.346;2023-04-23T17:28:00;42.30;;;13.32;;
34775;SDS011;20989;52.566;13.346;2023-04-23T17:31:01;42.33;;;13.45;;
34775;SDS011;20989;52.566;13.346;2023-04-23T17:34:02;33.95;;;12.52;;
34775;SDS011;20989;52.566;13.346;2023-04-23T17:37:03;39.50;;;12.57;;
34775;SDS011;20989;52.566;13.346;2023-04-23T17:40:04;39.92;;;12.80;;
34775;SDS011;20989;52.566;13.346;2023-04-23T17:43:05;39.45;;;11.80;;
34775;SDS011;20989;52.566;13.346;2023-04-23T17:46:05;46.65;;;10.85;;
34775;SDS011;20989;52.566;13.346;2023-04-23T17:49:06;38.80;;;12.93;;
34775;SDS011;20989;52.566;13.346;2023-04-23T17:52:09;35.00;;;11.88;;
34775;SDS011;20989;52.566;13.346;2023-04-23T17:55:10;28.85;;;10.82;;
34775;SDS011;20989;52.566;13.346;2023-04-23T17:58:11;28.63;;;9.98;;
34775;SDS011;20989;52.566;13.346;2023-04-23T18:01:12;26.85;;;10.10;;
34775;SDS011;20989;52.566;13.346;2023-04-23T18:04:14;25.67;;;9.38;;
34775;SDS011;20989;52.566;13.346;2023-04-23T18:07:15;22.83;;;9.82;;
34775;SDS011;20989;52.566;13.346;2023-04-23T18:10:16;31.27;;;9.82;;